createdAt,value
2018-01-17T04:32:33.920Z,91.60
2018-01-17T04:35:07.610Z,91.90
2018-01-17T04:37:41.435Z,92.30
2018-01-17T04:40:15.155Z,92.90
2018-01-17T04:42:48.975Z,92.90
2018-01-17T04:45:22.930Z,92.50
2018-01-17T04:47:56.802Z,92.60
2018-01-17T04:50:30.552Z,92.80
2018-01-17T04:53:05.076Z,92.60
2018-01-17T04:55:38.839Z,92.60
2018-01-17T05:01:11.181Z,92.20
2018-01-17T05:03:45.878Z,92.10
2018-01-17T05:06:19.661Z,92.10
2018-01-17T05:08:53.412Z,92.20
2018-01-17T05:11:27.264Z,92.10
2018-01-17T05:14:00.995Z,92.30
2018-01-17T05:16:34.800Z,92.60
2018-01-17T05:19:08.691Z,92.50
2018-01-17T05:21:42.856Z,92.40
2018-01-17T05:24:16.721Z,91.60
2018-01-17T05:26:50.605Z,91.50
2018-01-17T05:29:25.163Z,91.30
2018-01-17T05:31:59.721Z,91.60
2018-01-17T05:34:34.319Z,91.40
2018-01-17T05:37:08.892Z,91.80
2018-01-17T05:39:44.184Z,91.10
2018-01-17T05:42:18.143Z,91.10
2018-01-17T05:44:51.828Z,90.40
2018-01-17T05:47:25.575Z,90.10
2018-01-17T05:49:59.353Z,88.70
2018-01-17T05:52:34.046Z,88.60
2018-01-17T05:55:07.923Z,88.60
2018-01-17T05:57:42.474Z,87.80
2018-01-17T06:00:17.084Z,88.40
2018-01-17T06:02:50.901Z,88.10
2018-01-17T06:05:26.028Z,88.90
2018-01-17T06:07:59.836Z,88.90
2018-01-17T06:10:33.656Z,88.60
2018-01-17T06:13:08.489Z,90.40
2018-01-17T06:15:42.216Z,90.40
2018-01-17T06:18:16.287Z,90.70
2018-01-17T06:20:50.145Z,90.90
2018-01-17T06:23:25.160Z,90.80
2018-01-17T06:25:58.964Z,90.80
2018-01-17T06:28:33.156Z,90.40
2018-01-17T06:31:07.682Z,90.50
2018-01-17T06:33:41.441Z,90.50
2018-01-17T06:36:15.271Z,90.20
2018-01-17T06:38:49.864Z,89.00
2018-01-17T06:41:27.244Z,88.40
2018-01-17T06:44:01.359Z,88.40
2018-01-17T06:46:35.315Z,88.50
2018-01-17T06:49:09.223Z,86.20
2018-01-17T06:51:43.740Z,86.20
2018-01-17T06:54:18.425Z,84.90
2018-01-17T06:56:52.191Z,84.90
2018-01-17T06:59:25.983Z,82.80
2018-01-17T07:01:59.705Z,81.10
2018-01-17T07:04:33.468Z,80.50
2018-01-17T07:07:07.235Z,78.70
2018-01-17T07:09:41.052Z,79.10
2018-01-17T07:12:15.101Z,79.70
2018-01-17T07:14:48.989Z,85.90
2018-01-17T07:17:22.776Z,90.20
2018-01-17T07:19:56.385Z,91.00
2018-01-17T07:22:30.159Z,91.80
2018-01-17T07:25:03.972Z,91.80
2018-01-17T07:27:37.824Z,91.50
2018-01-17T07:30:12.412Z,91.70
2018-01-17T07:32:47.006Z,89.40
2018-01-17T07:35:20.787Z,89.40
2018-01-17T07:37:54.520Z,89.60
2018-01-17T07:40:28.347Z,84.50
2018-01-17T07:43:02.168Z,83.90
2018-01-17T07:45:35.950Z,83.20
2018-01-17T07:48:09.736Z,83.10
2018-01-17T07:50:43.530Z,81.80
2018-01-17T07:53:18.063Z,84.60
2018-01-17T07:55:51.829Z,84.60
2018-01-17T07:58:26.391Z,89.00
2018-01-17T08:01:00.286Z,88.80
2018-01-17T08:03:34.838Z,84.70
2018-01-17T08:06:08.660Z,84.60
2018-01-17T08:08:42.475Z,84.00
2018-01-17T08:11:16.585Z,81.70
2018-01-17T08:13:51.205Z,78.80
2018-01-17T08:16:24.928Z,78.70
2018-01-17T08:18:58.732Z,78.90
2018-01-17T08:21:32.461Z,78.80
2018-01-17T08:24:06.327Z,78.30
2018-01-17T08:26:40.038Z,75.70
2018-01-17T08:29:13.737Z,76.60
2018-01-17T08:31:47.593Z,75.80
2018-01-17T08:34:21.308Z,76.50
2018-01-17T08:36:55.067Z,75.60
2018-01-17T08:39:29.569Z,77.60
2018-01-17T08:42:04.194Z,77.50
2018-01-17T08:44:43.384Z,76.90
2018-01-17T08:47:17.371Z,77.30
2018-01-17T08:49:51.976Z,77.80
2018-01-17T08:52:26.062Z,77.80
2018-01-17T08:55:00.378Z,78.40
2018-01-17T08:57:35.243Z,79.00
2018-01-17T09:00:08.920Z,79.00
2018-01-17T09:02:43.459Z,82.20
2018-01-17T09:05:17.231Z,82.10
2018-01-17T09:07:51.008Z,82.20
2018-01-17T09:10:24.880Z,81.50
2018-01-17T09:12:58.672Z,81.20
2018-01-17T09:15:32.430Z,81.60
2018-01-17T09:18:06.174Z,82.70
2018-01-17T09:20:39.908Z,84.00
2018-01-17T09:23:13.702Z,84.30
2018-01-17T09:25:47.526Z,85.10
2018-01-17T09:28:21.308Z,86.50
2018-01-17T09:30:56.592Z,85.70
2018-01-17T09:33:30.321Z,85.70
2018-01-17T09:36:04.885Z,88.10
2018-01-17T09:38:38.656Z,88.00
2018-01-17T09:41:12.428Z,89.70
2018-01-17T09:43:46.883Z,94.30
2018-01-17T09:46:21.057Z,94.30
2018-01-17T09:48:54.851Z,94.00
2018-01-17T09:51:30.193Z,94.00
2018-01-17T09:54:04.000Z,94.00
2018-01-17T09:56:37.832Z,93.30
2018-01-17T09:59:11.563Z,93.30
2018-01-17T10:01:46.401Z,93.10
2018-01-17T10:04:20.956Z,92.60
2018-01-17T10:06:54.767Z,92.60
2018-01-17T10:09:29.355Z,90.60
2018-01-17T10:12:04.913Z,90.10
2018-01-17T10:14:39.153Z,90.10
2018-01-17T10:17:13.028Z,90.20
2018-01-17T10:19:46.844Z,90.00
2018-01-17T10:22:20.724Z,87.80
2018-01-17T10:24:54.547Z,88.70
2018-01-17T10:27:28.967Z,87.70
2018-01-17T10:30:02.736Z,87.70
2018-01-17T10:32:36.424Z,84.30
2018-01-17T10:35:10.114Z,84.70
2018-01-17T10:37:43.890Z,85.00
2018-01-17T10:40:17.673Z,83.50
2018-01-17T10:42:52.557Z,83.70
2018-01-17T10:45:26.337Z,83.60
2018-01-17T10:48:00.112Z,82.90
2018-01-17T10:50:33.871Z,82.50
2018-01-17T10:53:07.707Z,82.70
2018-01-17T10:55:44.441Z,79.60
2018-01-17T10:58:18.455Z,79.50
2018-01-17T11:01:04.558Z,79.90
2018-01-17T11:04:00.273Z,79.40
2018-01-17T11:06:46.303Z,81.20
2018-01-17T11:09:31.086Z,81.20
2018-01-17T11:12:23.005Z,81.60
2018-01-17T11:15:04.436Z,80.20
2018-01-17T11:17:49.902Z,81.50
2018-01-17T11:20:28.994Z,79.60
2018-01-17T11:23:13.029Z,79.80
2018-01-17T11:25:52.898Z,80.00
2018-01-17T11:28:31.552Z,80.10
2018-01-17T11:31:10.150Z,81.80
2018-01-17T11:33:49.898Z,82.10
2018-01-17T11:36:23.624Z,83.20
2018-01-17T11:38:58.127Z,82.40
2018-01-17T11:41:31.848Z,82.20
2018-01-17T11:44:05.583Z,81.40
2018-01-17T11:46:39.369Z,80.30
2018-01-17T11:49:13.456Z,78.90
2018-01-17T11:51:47.260Z,77.90
2018-01-17T11:54:21.126Z,77.50
2018-01-17T11:56:54.948Z,78.30
2018-01-17T11:59:29.498Z,77.10
2018-01-17T12:02:03.224Z,76.90
2018-01-17T12:04:37.022Z,75.20
2018-01-17T12:07:11.642Z,74.50
2018-01-17T12:09:46.259Z,75.70
2018-01-17T12:12:20.085Z,75.60
2018-01-17T12:14:53.953Z,75.10
2018-01-17T12:17:28.530Z,74.30
2018-01-17T12:20:03.156Z,74.50
2018-01-17T12:22:37.677Z,74.70
2018-01-17T12:25:11.480Z,74.50
2018-01-17T12:27:46.093Z,73.50
2018-01-17T12:30:19.869Z,73.50
2018-01-17T12:32:53.724Z,74.50
2018-01-17T12:35:27.471Z,74.60
2018-01-17T12:38:02.072Z,75.30
2018-01-17T12:40:35.668Z,75.10
2018-01-17T12:43:09.664Z,75.80
2018-01-17T12:45:43.424Z,73.30
2018-01-17T12:48:18.084Z,74.60
2018-01-17T12:50:51.813Z,74.50
2018-01-17T12:53:25.587Z,75.00
2018-01-17T12:55:59.488Z,73.70
2018-01-17T12:58:33.213Z,74.70
2018-01-17T13:01:07.739Z,73.80
2018-01-17T13:03:41.409Z,73.80
2018-01-17T13:06:15.948Z,74.00
2018-01-17T13:08:50.823Z,72.70
2018-01-17T13:11:24.653Z,72.60
2018-01-17T13:13:59.400Z,73.60
2018-01-17T13:16:33.424Z,74.40
2018-01-17T13:19:07.132Z,75.70
2018-01-17T13:21:40.920Z,77.00
2018-01-17T13:24:14.675Z,76.90
2018-01-17T13:26:48.467Z,77.60
2018-01-17T13:29:22.591Z,78.60
2018-01-17T13:31:59.305Z,77.40
2018-01-17T13:34:34.651Z,77.30
2018-01-17T13:37:09.960Z,78.90
2018-01-17T13:39:45.300Z,76.30
2018-01-17T13:42:18.888Z,75.40
2018-01-17T13:44:52.685Z,73.90
2018-01-17T13:47:28.617Z,72.40
2018-01-17T13:50:02.366Z,71.90
2018-01-17T13:52:36.124Z,70.20
2018-01-17T13:55:10.750Z,70.80
2018-01-17T13:57:44.444Z,70.70
2018-01-17T14:00:18.244Z,70.80
2018-01-17T14:02:53.511Z,72.20
2018-01-17T14:05:28.473Z,70.10
2018-01-17T14:08:03.225Z,70.50
2018-01-17T14:10:37.441Z,70.30
2018-01-17T14:13:11.833Z,72.30
2018-01-17T14:15:46.420Z,71.90
2018-01-17T14:18:20.230Z,71.90
2018-01-17T14:20:54.071Z,75.00
2018-01-17T14:23:29.729Z,74.90
2018-01-17T14:26:03.566Z,74.90
2018-01-17T14:28:37.403Z,74.70
2018-01-17T14:31:11.321Z,75.40
2018-01-17T14:33:45.144Z,75.40
2018-01-17T14:36:18.892Z,76.50
2018-01-17T14:38:52.788Z,76.60
2018-01-17T14:41:26.560Z,77.60
2018-01-17T14:44:01.155Z,79.60
2018-01-17T14:46:34.913Z,79.50
2018-01-17T14:49:08.801Z,79.70
2018-01-17T14:51:43.384Z,82.10
2018-01-17T14:54:17.260Z,82.10
2018-01-17T14:56:51.032Z,83.50
2018-01-17T14:59:24.855Z,83.60
2018-01-17T15:01:59.439Z,84.00
2018-01-17T15:04:34.070Z,85.10
2018-01-17T15:07:07.800Z,85.10
2018-01-17T15:09:41.596Z,84.60
2018-01-17T15:12:16.328Z,84.00
2018-01-17T15:14:50.161Z,83.90
2018-01-17T15:17:23.936Z,81.80
2018-01-17T15:19:57.736Z,81.90
2018-01-17T15:22:32.149Z,80.30
2018-01-17T15:25:06.884Z,80.30
2018-01-17T15:27:40.502Z,81.50
2018-01-17T15:30:15.030Z,80.60
2018-01-17T15:32:48.767Z,80.70
2018-01-17T15:35:22.520Z,80.60
2018-01-17T15:37:56.224Z,81.90
2018-01-17T15:40:30.841Z,81.30
2018-01-17T15:43:04.642Z,81.10
2018-01-17T15:45:38.435Z,82.70
2018-01-17T15:48:12.280Z,81.70
2018-01-17T15:50:46.876Z,82.40
2018-01-17T15:53:21.427Z,82.00
2018-01-17T15:55:56.070Z,82.50
2018-01-17T15:58:29.831Z,82.50
2018-01-17T16:01:05.512Z,83.30
2018-01-17T16:03:39.299Z,83.30
2018-01-17T16:06:14.129Z,83.80
2018-01-17T16:08:50.837Z,83.80
2018-01-17T16:11:24.833Z,85.20
2018-01-17T16:14:00.338Z,85.00
2018-01-17T16:16:34.779Z,83.40
2018-01-17T16:19:08.814Z,83.40
2018-01-17T16:21:43.332Z,85.20
2018-01-17T16:24:17.812Z,86.50
2018-01-17T16:26:51.703Z,86.20
2018-01-17T16:29:26.595Z,87.20
2018-01-17T16:32:00.264Z,86.80
2018-01-17T16:34:34.113Z,87.90
2018-01-17T16:37:07.952Z,87.90
2018-01-17T16:39:41.778Z,89.30
2018-01-17T16:42:15.629Z,88.80
2018-01-17T16:44:50.222Z,90.30
2018-01-17T16:47:23.993Z,90.10
2018-01-17T16:49:57.763Z,90.70
2018-01-17T16:52:31.541Z,90.30
2018-01-17T16:55:05.336Z,90.70
2018-01-17T16:57:39.254Z,90.30
2018-01-17T17:00:13.779Z,87.50
2018-01-17T17:02:47.616Z,87.50
2018-01-17T17:05:21.384Z,86.70
2018-01-17T17:07:55.152Z,87.20
2018-01-17T17:10:29.027Z,87.40
2018-01-17T17:13:05.293Z,87.30
2018-01-17T17:15:39.812Z,84.70
2018-01-17T17:18:13.616Z,84.70
2018-01-17T17:20:47.589Z,85.50
2018-01-17T17:23:21.304Z,86.30
2018-01-17T17:25:55.268Z,84.60
2018-01-17T17:28:29.050Z,85.40
2018-01-17T17:31:02.854Z,83.10
2018-01-17T17:33:36.634Z,80.60
2018-01-17T17:36:10.335Z,80.90
2018-01-17T17:38:44.872Z,78.80
2018-01-17T17:41:18.655Z,78.80
2018-01-17T17:43:52.289Z,78.20
2018-01-17T17:46:26.059Z,78.00
2018-01-17T17:49:00.667Z,77.90
2018-01-17T17:51:34.285Z,77.80
2018-01-17T17:54:08.160Z,78.10
2018-01-17T17:56:42.049Z,78.50
2018-01-17T17:59:15.908Z,79.10
2018-01-17T18:01:49.589Z,79.70
2018-01-17T18:04:23.363Z,80.70
2018-01-17T18:06:57.195Z,80.00
2018-01-17T18:09:31.080Z,81.70
2018-01-17T18:12:05.655Z,82.30
2018-01-17T18:14:40.316Z,82.40
2018-01-17T18:17:14.936Z,82.80
2018-01-17T18:19:48.756Z,82.80
2018-01-17T18:22:22.583Z,82.70
2018-01-17T18:24:57.137Z,82.20
2018-01-17T18:27:30.900Z,82.20
2018-01-17T18:30:04.737Z,82.60
2018-01-17T18:32:39.396Z,80.90
2018-01-17T18:35:13.892Z,81.20
2018-01-17T18:37:48.509Z,80.60
2018-01-17T18:40:23.188Z,81.10
2018-01-17T18:42:57.019Z,80.30
2018-01-17T18:45:31.008Z,80.60
2018-01-17T18:48:04.789Z,80.00
2018-01-17T18:50:38.668Z,80.30
2018-01-17T18:53:13.212Z,81.20
2018-01-17T18:55:47.755Z,81.40
2018-01-17T18:58:21.508Z,81.30
2018-01-17T19:00:55.315Z,81.90
2018-01-17T19:03:29.219Z,80.90
2018-01-17T19:06:03.779Z,81.10
2018-01-17T19:08:37.554Z,81.10
2018-01-17T19:11:12.312Z,81.20
2018-01-17T19:13:47.187Z,80.80
2018-01-17T19:16:21.140Z,80.80
2018-01-17T19:18:55.130Z,80.80
2018-01-17T19:21:28.916Z,80.20
2018-01-17T19:24:02.736Z,81.00
2018-01-17T19:26:37.315Z,80.90
2018-01-17T19:29:11.169Z,80.80
2018-01-17T19:31:45.053Z,81.60
2018-01-17T19:34:19.217Z,82.30
2018-01-17T19:36:52.928Z,82.30
2018-01-17T19:39:27.574Z,82.50
2018-01-17T19:42:01.475Z,82.60
2018-01-17T19:44:35.284Z,82.50
2018-01-17T19:47:09.114Z,81.70
2018-01-17T19:49:43.728Z,80.30
2018-01-17T19:52:17.548Z,80.30
2018-01-17T19:54:52.093Z,79.80
2018-01-17T19:57:25.981Z,79.70
2018-01-17T19:59:59.816Z,78.80
2018-01-17T20:02:33.611Z,79.40
2018-01-17T20:05:07.417Z,79.90
2018-01-17T20:07:41.153Z,79.90
2018-01-17T20:10:14.936Z,79.90
2018-01-17T20:12:50.720Z,79.60
2018-01-17T20:15:25.124Z,80.20
2018-01-17T20:17:58.828Z,80.00
2018-01-17T20:20:33.414Z,80.40
2018-01-17T20:23:07.931Z,80.20
2018-01-17T20:25:41.601Z,80.40
2018-01-17T20:28:15.470Z,80.50
2018-01-17T20:30:49.407Z,80.40
2018-01-17T20:33:23.282Z,80.50
2018-01-17T20:35:57.694Z,80.80
2018-01-17T20:38:31.457Z,80.80
2018-01-17T20:41:05.395Z,81.50
2018-01-17T20:43:39.024Z,82.60
2018-01-17T20:46:13.642Z,83.10
2018-01-17T20:48:47.484Z,83.10
2018-01-17T20:51:21.324Z,84.00
2018-01-17T20:53:55.903Z,82.80
2018-01-17T20:56:29.735Z,82.80
2018-01-17T20:59:03.613Z,82.40
2018-01-17T21:01:37.466Z,83.10
2018-01-17T21:04:11.521Z,83.40
2018-01-17T21:06:45.497Z,82.60
2018-01-17T21:09:19.448Z,82.70
2018-01-17T21:11:54.002Z,80.80
2018-01-17T21:14:27.875Z,80.60
2018-01-17T21:17:03.359Z,80.90
2018-01-17T21:19:37.092Z,80.90
2018-01-17T21:22:10.957Z,80.80
2018-01-17T21:24:44.692Z,81.20
2018-01-17T21:27:18.577Z,80.90
2018-01-17T21:29:52.375Z,82.20
2018-01-17T21:32:26.245Z,81.80
2018-01-17T21:34:59.935Z,82.20
2018-01-17T21:37:33.728Z,82.80
2018-01-17T21:40:07.603Z,82.10
2018-01-17T21:42:47.245Z,82.30
2018-01-17T21:45:27.583Z,82.20
2018-01-17T21:48:01.398Z,82.20
2018-01-17T21:50:35.262Z,82.90
2018-01-17T21:53:09.154Z,82.20
2018-01-17T21:55:43.066Z,81.70
2018-01-17T21:58:16.743Z,81.40
